• Join FlightAware (Why Join?)
  • Login
  • US Flag GB Flag 
04:21 EST


 

Airport Tracker/Info


-or-


 

Live Flight TrackerFlight Track Log ✈ SWA1729 ✈ 25-Apr-2013 ✈ KHOU - KELP

Flight Track Log - Related Links

Times and Time Zones

All times are in EDT time to prevent confusion due to time zone crossing. See the SWA1729 flight status page for this flight to view local times or setup timezone preferences in your user account.

Time Position Orientation Groundspeed Altitude Reporting Facility
EDT Latitude Longitude Course Direction KTS MPH feet Rate Location/Type
22:39 29.6411 -95.2489 41° Northeast 236 272 2,300  Level Houston Center
22:40 29.6917 -95.3003 319° Northwest 235 270 5,100 1,320 Climbing Houston Center
22:41 29.7275 -95.3803 297° West 274 315 5,000 1,320 Descending Houston Center
22:42 29.7619 -95.4594 297° West 279 321 7,800 2,820 Climbing Houston Center
22:43 29.7969 -95.5394 297° West 280 322 10,900 2,580 Climbing Houston Center
22:44 29.8297 -95.6400 291° West 338 389 13,200 2,400 Climbing Houston Center
22:45 29.8558 -95.7508 285° West 358 412 15,800 2,580 Climbing Houston Center
22:46 29.8850 -95.8675 286° West 375 432 18,500 2,340 Climbing Houston Center
22:47 29.9133 -95.9853 286° West 382 440 20,600 2,400 Climbing Houston Center
22:48 29.9319 -96.1242 279° West 393 452 23,500 2,220 Climbing Houston Center
22:49 29.9386 -96.2478 274° West 391 450 25,200 1,440 Climbing Houston Center
22:50 29.9469 -96.3783 274° West 410 472 26,500 1,740 Climbing Houston Center
22:51 29.9536 -96.5111 273° West 417 480 28,800 2,280 Climbing Houston Center
22:52 29.9806 -96.6336 284° West 397 457 31,200 1,860 Climbing Houston Center
22:53 30.0081 -96.7542 285° West 391 450 32,700 1,440 Climbing Houston Center
22:54 30.0347 -96.8736 284° West 388 447 34,200 1,080 Climbing Houston Center
22:55 30.0597 -96.9892 284° West 378 435 34,900 360 Climbing Houston Center
22:56 30.0908 -97.1314 284° West 381 438 35,000  Climbing Houston Center
22:57 30.1128 -97.2333 284° West 377 434 35,000  Level Houston Center
22:58 30.1383 -97.3542 284° West 379 436 35,000  Level Houston Center
22:59 30.1642 -97.4753 284° West 382 440 35,000 480 Level Houston Center
23:00 30.1900 -97.5925 284° West 374 430 36,000 480 Climbing Houston Center
23:01 30.2150 -97.7114 284° West 375 432 36,000  Level Houston Center
23:02 30.2400 -97.8319 284° West 379 436 36,000  Level Houston Center
23:03 30.2694 -97.9703 284° West 380 437 36,000  Level Houston Center
23:04 30.2947 -98.0906 284° West 385 443 36,000  Level Houston Center
23:05 30.3208 -98.2147 284° West 384 442 36,000  Level Houston Center
23:06 30.3461 -98.3358 284° West 383 441 36,000  Level Houston Center
23:07 30.3708 -98.4572 283° West 383 441 36,000  Level Houston Center
23:08 30.3956 -98.5781 283° West 383 441 36,000  Level Houston Center
23:09 30.4200 -98.7000 283° West 384 442 36,000  Level Houston Center
23:10 30.4456 -98.8219 284° West 387 445 36,000  Level Houston Center
23:11 30.4708 -98.9442 284° West 386 444 36,000  Level Houston Center
23:12 30.4956 -99.0669 283° West 388 447 36,000  Level Houston Center
23:13 30.5203 -99.1839 284° West 386 444 36,000  Level Houston Center
23:14 30.5433 -99.3064 282° West 391 450 36,000 -60 Level Houston Center
23:15 30.5683 -99.4275 284° West 388 447 35,900  Descending Houston Center
23:16 30.5911 -99.5478 282° West 385 443 36,000  Climbing Houston Center
23:17 30.6150 -99.6678 283° West 383 441 36,000  Level Houston Center
23:18 30.6389 -99.7869 283° West 381 438 36,000  Level Houston Center
23:19 30.6617 -99.9067 283° West 383 441 36,000  Level Houston Center
23:20 30.6894 -100.0511 283° West 384 442 36,000  Level Houston Center
23:21 30.7111 -100.1697 282° West 376 433 36,000  Level Houston Center
23:22 30.7342 -100.2850 283° West 375 432 36,000  Level Houston Center
23:23 30.7567 -100.4031 283° West 377 434 36,000  Level Houston Center
23:24 30.7778 -100.5228 282° West 379 436 36,000  Level Houston Center
23:25 30.8006 -100.6417 283° West 379 436 36,000  Level Houston Center
23:26 30.8228 -100.7606 282° West 380 437 36,000  Level Houston Center
23:27 30.8450 -100.8800 282° West 381 438 36,000  Level Houston Center
23:28 30.8669 -100.9986 282° West 380 437 36,000  Level Houston Center
23:29 30.8875 -101.1186 281° West 379 436 36,000  Level Houston Center
23:30 30.9117 -101.2350 284° West 374 430 36,000  Level Houston Center
23:31 30.9342 -101.3603 282° West 378 435 36,000  Level Houston Center
23:32 30.9503 -101.4550 281° West 377 434 36,000  Level Albuquerque Center
23:33 30.9708 -101.5744 281° West 376 433 36,000  Level Albuquerque Center
23:34 30.9972 -101.7153 282° West 374 430 36,000  Level Albuquerque Center
23:35 31.0181 -101.8344 282° West 374 430 36,000  Level Albuquerque Center
23:36 31.0364 -101.9342 282° West 374 430 36,000  Level Albuquerque Center
23:37 31.0614 -102.0778 282° West 377 434 36,000  Level Albuquerque Center
23:38 31.0817 -102.1992 281° West 378 435 36,000  Level Albuquerque Center
23:39 31.1025 -102.3192 281° West 379 436 36,000  Level Albuquerque Center
23:40 31.1233 -102.4403 281° West 379 436 36,000  Level Albuquerque Center
23:41 31.1436 -102.5625 281° West 379 436 36,000  Level Albuquerque Center
23:42 31.1639 -102.6836 281° West 379 436 36,000  Level Albuquerque Center
23:43 31.1861 -102.8064 282° West 382 440 36,000  Level Albuquerque Center
23:44 31.2061 -102.9275 281° West 383 441 36,000  Level Albuquerque Center
23:45 31.2256 -103.0492 281° West 382 440 36,000  Level Albuquerque Center
23:46 31.2503 -103.1925 281° West 379 436 36,000  Level Albuquerque Center
23:47 31.2708 -103.3119 281° West 376 433 36,000  Level Albuquerque Center
23:49 31.2889 -103.4306 280° West 375 432 36,000  Level Albuquerque Center
23:50 31.3092 -103.5508 281° West 376 433 36,000  Level Albuquerque Center
23:51 31.3269 -103.6708 280° West 376 433 36,000  Level Albuquerque Center
23:52 31.3472 -103.7861 282° West 379 436 36,000  Level Albuquerque Center
23:53 31.3669 -103.9069 281° West 380 437 36,000  Level Albuquerque Center
23:54 31.3867 -104.0267 281° West 378 435 36,000  Level Albuquerque Center
23:55 31.4078 -104.1689 280° West 373 429 36,000  Level Albuquerque Center
23:56 31.4278 -104.2867 281° West 371 427 36,000  Level Albuquerque Center
23:57 31.4456 -104.4042 280° West 369 425 36,000  Level Albuquerque Center
23:58 31.4600 -104.5194 278° West 365 420 36,000 -60 Level Albuquerque Center
23:59 31.4717 -104.6350 277° West 362 417 35,900  Descending Albuquerque Center
00:00 31.4836 -104.7494 277° West 358 412 36,000 -360 Climbing Albuquerque Center
00:01 31.4956 -104.8619 277° West 353 406 35,200 -1,980 Descending Albuquerque Center
00:02 31.5075 -104.9731 277° West 348 400 32,000 -3,540 Descending Albuquerque Center
00:03 31.5214 -105.1086 277° West 350 403 28,000 -3,300 Descending Albuquerque Center
00:04 31.5328 -105.2264 277° West 361 415 25,300 -2,760 Descending Albuquerque Center
00:05 31.5383 -105.3383 273° West 367 422 22,800 -2,580 Descending Albuquerque Center
00:06 31.5544 -105.4533 279° West 343 395 20,100 -2,580 Descending Albuquerque Center
00:07 31.5686 -105.5603 279° West 329 379 17,300 -2,640 Descending Albuquerque Center
00:08 31.6008 -105.6600 291° West 336 387 14,800 -2,460 Descending Albuquerque Center
00:09 31.6317 -105.7614 290° West 331 381 12,300 -2,100 Descending Albuquerque Center
00:10 31.6619 -105.8594 290° West 322 371 10,600 -1,200 Descending Albuquerque Center
00:11 31.6872 -105.9425 290° West 269 310 9,900 -1,260 Descending Albuquerque Center
00:12 31.7164 -106.0344 290° West 251 289 8,100 -1,560 Descending Albuquerque Center
00:13 31.7397 -106.1075 291° West 242 278 6,800 -1,020 Descending Albuquerque Center
00:14 31.7614 -106.1761 290° West 227 261 6,100 -600 Descending Albuquerque Center
00:15 31.7789 -106.2306 291° West 177 204 5,600 -540 Descending Albuquerque Center
00:16 31.7922 -106.2742 290° West 147 169 5,100 -420 Descending Albuquerque Center
00:17 31.7983 -106.3108 281° West 118 136 4,800 -540 Descending Albuquerque Center
00:18 31.8003 -106.3503 273° West 120 138 4,100 -720 Descending Albuquerque Center
00:20 31.8000 -106.3667 270° West  Level FlightAware Approximate
00:27 31.8072 -106.3764 270° West  Level Estimated
00:28 31.8072 -106.3764 270° West  Level Estimated
00:29 31.8072 -106.3764 270° West  Level Estimated
00:30 31.8072 -106.3764 270° West  Level Estimated